createdAt,value
2023-03-24T00:00:24.477Z,100162.98
2023-03-24T00:02:53.558Z,100158.44
2023-03-24T00:05:22.842Z,100152.84
2023-03-24T00:07:54.976Z,100156.88
2023-03-24T00:10:24.492Z,100155.98
2023-03-24T00:12:52.641Z,100155.64
2023-03-24T00:15:21.792Z,100152.36
2023-03-24T00:17:51.066Z,100145.39
2023-03-24T00:20:46.728Z,100139.00
2023-03-24T00:23:16.157Z,100135.67
2023-03-24T00:25:45.206Z,100134.57
2023-03-24T00:28:18.145Z,100132.14
2023-03-24T00:30:53.197Z,100135.58
2023-03-24T00:33:22.003Z,100139.69
2023-03-24T00:35:50.269Z,100140.09
2023-03-24T00:42:09.503Z,100138.52
2023-03-24T00:44:38.286Z,100131.56
2023-03-24T00:47:06.461Z,100129.05
2023-03-24T00:49:44.865Z,100123.96
2023-03-24T00:52:22.548Z,100122.15
2023-03-24T00:54:58.418Z,100119.25
2023-03-24T00:57:50.705Z,100115.95
2023-03-24T01:00:25.036Z,100114.64
2023-03-24T01:02:57.402Z,100112.10
2023-03-24T01:05:30.253Z,100113.54
2023-03-24T01:08:04.014Z,100109.44
2023-03-24T01:11:05.857Z,100111.05
2023-03-24T01:13:36.802Z,100105.20
2023-03-24T01:16:08.003Z,100104.91
2023-03-24T01:18:40.862Z,100100.91
2023-03-24T01:21:09.737Z,100100.07
2023-03-24T01:23:38.173Z,100098.06
2023-03-24T01:26:08.367Z,100102.19
2023-03-24T01:28:41.040Z,100106.13
2023-03-24T01:31:10.060Z,100107.19
2023-03-24T01:33:38.659Z,100105.67
2023-03-24T01:36:07.796Z,100101.94
2023-03-24T01:38:36.524Z,100102.34
2023-03-24T01:41:06.007Z,100104.33
2023-03-24T01:43:35.959Z,100104.59
2023-03-24T01:46:08.822Z,100107.93
2023-03-24T01:48:39.442Z,100104.20
2023-03-24T01:51:16.706Z,100102.54
2023-03-24T01:53:53.515Z,100102.61
2023-03-24T01:56:22.002Z,100096.42
2023-03-24T01:58:53.938Z,100095.11
2023-03-24T02:01:31.157Z,100094.14
2023-03-24T02:04:25.931Z,100088.66
2023-03-24T02:06:55.528Z,100093.55
2023-03-24T02:09:25.464Z,100100.55
2023-03-24T02:11:53.795Z,100103.01
2023-03-24T02:14:30.340Z,100107.55
2023-03-24T02:17:23.463Z,100108.48
2023-03-24T02:20:12.515Z,100114.20
2023-03-24T02:23:03.579Z,100119.86
2023-03-24T02:25:41.842Z,100122.60
2023-03-24T02:28:15.601Z,100126.64
2023-03-24T02:31:13.103Z,100123.21
2023-03-24T02:34:07.650Z,100119.45
2023-03-24T02:37:18.893Z,100116.36
2023-03-24T02:40:22.726Z,100118.51
2023-03-24T02:42:56.172Z,100114.52
2023-03-24T02:45:24.250Z,100124.01
2023-03-24T02:48:34.245Z,100123.52
2023-03-24T02:51:06.061Z,100118.36
2023-03-24T02:54:03.889Z,100119.56
2023-03-24T02:56:37.712Z,100121.35
2023-03-24T02:59:41.608Z,100128.66
2023-03-24T03:02:30.869Z,100132.11
2023-03-24T03:05:14.027Z,100135.60
2023-03-24T03:07:42.499Z,100139.23
2023-03-24T03:10:13.758Z,100131.76
2023-03-24T03:12:43.001Z,100130.00
2023-03-24T03:15:14.482Z,100135.40
2023-03-24T03:17:48.952Z,100136.80
2023-03-24T03:20:25.109Z,100137.48
2023-03-24T03:22:59.944Z,100135.89
2023-03-24T03:25:30.700Z,100133.77
2023-03-24T03:28:00.566Z,100133.27
2023-03-24T03:30:34.013Z,100133.99
2023-03-24T03:33:06.191Z,100132.06
2023-03-24T03:35:43.856Z,100133.27
2023-03-24T03:38:22.694Z,100133.09
2023-03-24T03:40:59.583Z,100132.23
2023-03-24T03:43:33.033Z,100130.84
2023-03-24T03:46:06.588Z,100136.06
2023-03-24T03:48:37.315Z,100139.15
2023-03-24T03:51:14.596Z,100132.38
2023-03-24T03:53:58.387Z,100135.89
2023-03-24T03:56:28.710Z,100141.31
2023-03-24T03:59:26.027Z,100148.08
2023-03-24T04:01:54.664Z,100143.94
2023-03-24T04:04:53.200Z,100150.72
2023-03-24T04:08:11.020Z,100149.64
2023-03-24T04:12:00.109Z,100152.73
2023-03-24T04:15:41.232Z,100152.33
2023-03-24T04:18:41.805Z,100159.42
2023-03-24T04:21:20.064Z,100158.38
2023-03-24T04:24:06.380Z,100162.18
2023-03-24T04:27:03.051Z,100159.02
2023-03-24T04:29:53.319Z,100157.58
2023-03-24T04:32:30.562Z,100166.42
2023-03-24T04:35:01.998Z,100170.77
2023-03-24T04:38:13.294Z,100170.34
2023-03-24T04:40:42.219Z,100169.79
2023-03-24T04:43:14.049Z,100172.54
2023-03-24T04:45:42.289Z,100172.05
2023-03-24T04:48:49.828Z,100180.37
2023-03-24T04:51:51.927Z,100183.05
2023-03-24T04:54:23.959Z,100183.45
2023-03-24T04:56:55.353Z,100190.29
2023-03-24T04:59:32.510Z,100191.63
2023-03-24T05:02:02.505Z,100193.80
2023-03-24T05:04:37.378Z,100197.59
2023-03-24T05:07:12.379Z,100199.83
2023-03-24T05:09:40.827Z,100200.70
2023-03-24T05:12:09.057Z,100203.34
2023-03-24T05:14:52.123Z,100204.57
2023-03-24T05:17:20.456Z,100203.67
2023-03-24T05:19:48.496Z,100203.83
2023-03-24T05:22:17.252Z,100201.18
2023-03-24T05:24:45.349Z,100204.14
2023-03-24T05:27:14.013Z,100200.08
2023-03-24T05:29:42.309Z,100196.70
2023-03-24T05:32:15.989Z,100199.95
2023-03-24T05:34:45.703Z,100204.19
2023-03-24T05:37:17.824Z,100204.71
2023-03-24T05:39:53.275Z,100201.27
2023-03-24T05:42:44.845Z,100205.79
2023-03-24T05:45:13.780Z,100202.48
2023-03-24T05:47:43.434Z,100207.55
2023-03-24T05:50:11.775Z,100208.11
2023-03-24T05:52:42.560Z,100214.59
2023-03-24T05:55:31.153Z,100218.92
2023-03-24T05:58:08.731Z,100217.66
2023-03-24T06:00:43.435Z,100210.32
2023-03-24T06:03:17.617Z,100215.11
2023-03-24T06:05:52.805Z,100217.59
2023-03-24T06:08:21.622Z,100213.05
2023-03-24T06:10:56.164Z,100211.29
2023-03-24T06:13:24.402Z,100209.69
2023-03-24T06:16:02.193Z,100212.40
2023-03-24T06:18:42.902Z,100211.65
2023-03-24T06:21:21.977Z,100215.46
2023-03-24T06:23:53.785Z,100214.63
2023-03-24T06:26:30.881Z,100213.89
2023-03-24T06:29:00.675Z,100221.45
2023-03-24T06:31:32.839Z,100217.42
2023-03-24T06:34:02.671Z,100213.30
2023-03-24T06:36:31.130Z,100214.22
2023-03-24T06:39:02.425Z,100213.64
2023-03-24T06:41:31.616Z,100211.13
2023-03-24T06:44:02.035Z,100210.05
2023-03-24T06:46:30.849Z,100206.21
2023-03-24T06:48:59.324Z,100205.74
2023-03-24T06:51:27.595Z,100206.59
2023-03-24T06:53:58.738Z,100203.52
2023-03-24T06:56:28.497Z,100202.42
2023-03-24T06:58:59.806Z,100206.13
2023-03-24T07:01:38.625Z,100203.20
2023-03-24T07:04:25.882Z,100204.82
2023-03-24T07:07:27.954Z,100207.52
2023-03-24T07:10:06.444Z,100209.73
2023-03-24T07:12:35.531Z,100210.73
2023-03-24T07:15:04.849Z,100208.04
2023-03-24T07:17:39.087Z,100207.61
2023-03-24T07:20:16.457Z,100204.70
2023-03-24T07:23:05.817Z,100206.48
2023-03-24T07:25:44.985Z,100206.17
2023-03-24T07:28:41.951Z,100207.28
2023-03-24T07:31:12.895Z,100208.18
2023-03-24T07:33:42.283Z,100212.54
2023-03-24T07:36:10.901Z,100213.36
2023-03-24T07:38:41.793Z,100215.58
2023-03-24T07:41:12.775Z,100219.00
2023-03-24T07:43:44.067Z,100217.14
2023-03-24T07:46:26.124Z,100214.45
2023-03-24T07:48:57.060Z,100216.45
2023-03-24T07:51:27.880Z,100219.14
2023-03-24T07:54:02.889Z,100217.98
2023-03-24T07:56:40.011Z,100215.38
2023-03-24T07:59:09.875Z,100213.48
2023-03-24T08:01:57.693Z,100209.33
2023-03-24T08:04:39.596Z,100213.88
2023-03-24T08:07:19.072Z,100213.90
2023-03-24T08:09:47.686Z,100208.48
2023-03-24T08:12:20.503Z,100207.41
2023-03-24T08:14:49.234Z,100210.13
2023-03-24T08:17:17.458Z,100203.92
2023-03-24T08:19:59.047Z,100204.56
2023-03-24T08:22:31.187Z,100210.42
2023-03-24T08:24:59.633Z,100207.70
2023-03-24T08:27:29.200Z,100205.22
2023-03-24T08:30:23.995Z,100210.15
2023-03-24T08:33:00.190Z,100209.60
2023-03-24T08:35:32.734Z,100206.55
2023-03-24T08:38:01.654Z,100206.53
2023-03-24T08:40:32.779Z,100201.64
2023-03-24T08:43:03.371Z,100200.13
2023-03-24T08:45:32.378Z,100195.09
2023-03-24T08:48:02.115Z,100197.38
2023-03-24T08:50:34.640Z,100195.10
2023-03-24T08:53:04.309Z,100194.20
2023-03-24T08:55:33.056Z,100190.05
2023-03-24T08:58:02.054Z,100186.30
2023-03-24T09:00:30.662Z,100184.29
2023-03-24T09:03:09.642Z,100184.36
2023-03-24T09:05:44.424Z,100186.17
2023-03-24T09:08:14.448Z,100191.09
2023-03-24T09:10:43.008Z,100187.42
2023-03-24T09:13:14.332Z,100192.47
2023-03-24T09:15:48.974Z,100189.42
2023-03-24T09:18:18.253Z,100186.77
2023-03-24T09:20:46.893Z,100191.35
2023-03-24T09:23:16.311Z,100188.58
2023-03-24T09:25:52.553Z,100187.48
2023-03-24T09:28:22.013Z,100187.37
2023-03-24T09:30:51.108Z,100187.31
2023-03-24T09:33:24.290Z,100186.27
2023-03-24T09:36:00.385Z,100186.86
2023-03-24T09:38:31.563Z,100185.05
2023-03-24T09:41:04.069Z,100185.54
2023-03-24T09:43:40.045Z,100179.27
2023-03-24T09:46:18.741Z,100179.40
2023-03-24T09:48:51.419Z,100177.38
2023-03-24T09:51:25.432Z,100177.73
2023-03-24T09:54:22.742Z,100175.29
2023-03-24T09:56:51.858Z,100169.02
2023-03-24T09:59:32.206Z,100172.85
2023-03-24T10:02:00.845Z,100169.91
2023-03-24T10:04:32.215Z,100168.89
2023-03-24T10:07:23.220Z,100166.70
2023-03-24T10:09:59.587Z,100166.42
2023-03-24T10:12:29.976Z,100166.77
2023-03-24T10:15:27.210Z,100169.47
2023-03-24T10:18:19.390Z,100163.63
2023-03-24T10:21:03.707Z,100158.35
2023-03-24T10:23:51.558Z,100153.27
2023-03-24T10:26:51.091Z,100151.63
2023-03-24T10:29:39.759Z,100150.30
2023-03-24T10:32:22.567Z,100147.16
2023-03-24T10:34:59.662Z,100144.82
2023-03-24T10:37:29.883Z,100139.24
2023-03-24T10:39:59.175Z,100136.05
2023-03-24T10:42:30.914Z,100129.70
2023-03-24T10:45:01.062Z,100124.51
2023-03-24T10:47:32.957Z,100122.20
2023-03-24T10:50:12.410Z,100115.61
2023-03-24T10:52:47.480Z,100114.06
2023-03-24T10:55:19.325Z,100107.09
2023-03-24T10:57:55.710Z,100102.33
2023-03-24T11:00:31.833Z,100100.55
2023-03-24T11:03:01.964Z,100099.34
2023-03-24T11:05:37.530Z,100092.77
2023-03-24T11:08:32.814Z,100093.06
2023-03-24T11:11:24.011Z,100087.76
2023-03-24T11:13:57.748Z,100085.64
2023-03-24T11:16:31.544Z,100084.17
2023-03-24T11:19:07.819Z,100086.80
2023-03-24T11:21:36.767Z,100084.27
2023-03-24T11:24:15.888Z,100079.94
2023-03-24T11:26:54.499Z,100082.77
2023-03-24T11:29:25.822Z,100081.15
2023-03-24T11:31:58.631Z,100081.86
2023-03-24T11:34:38.806Z,100080.85
2023-03-24T11:37:14.657Z,100077.31
2023-03-24T11:39:44.735Z,100073.83
2023-03-24T11:42:13.006Z,100071.81
2023-03-24T11:44:47.157Z,100062.60
2023-03-24T11:47:21.740Z,100057.84
2023-03-24T11:50:11.501Z,100053.46
2023-03-24T11:52:43.650Z,100051.95
2023-03-24T11:55:19.709Z,100044.27
2023-03-24T11:58:05.058Z,100045.19
2023-03-24T12:01:04.443Z,100044.09
2023-03-24T12:03:48.921Z,100041.26
2023-03-24T12:06:40.359Z,100038.67
2023-03-24T12:09:32.118Z,100030.48
2023-03-24T12:12:18.388Z,100028.40
2023-03-24T12:14:49.744Z,100028.37
2023-03-24T12:17:24.363Z,100020.66
2023-03-24T12:19:57.928Z,100021.13
2023-03-24T12:22:50.063Z,100018.11
2023-03-24T12:25:30.659Z,100015.61
2023-03-24T12:28:06.802Z,100016.16
2023-03-24T12:30:54.067Z,100014.82
2023-03-24T12:33:45.048Z,100020.23
2023-03-24T12:36:18.832Z,100020.59
2023-03-24T12:39:13.138Z,100011.31
2023-03-24T12:42:00.422Z,100005.82
2023-03-24T12:44:56.543Z,100006.58
2023-03-24T12:47:34.230Z,100007.52
2023-03-24T12:50:28.709Z,100008.66
2023-03-24T12:53:27.807Z,100008.61
2023-03-24T12:56:09.798Z,100006.35
2023-03-24T12:59:01.046Z,100000.20
2023-03-24T13:01:40.634Z,99997.10
2023-03-24T13:04:16.308Z,99995.19
2023-03-24T13:07:06.952Z,99993.88
2023-03-24T13:09:49.625Z,99986.73
2023-03-24T13:12:23.916Z,99988.85
2023-03-24T13:15:14.252Z,99984.80
2023-03-24T13:17:57.059Z,99983.23
2023-03-24T13:20:33.608Z,99980.33
2023-03-24T13:23:19.301Z,99977.20
2023-03-24T13:25:52.910Z,99977.04
2023-03-24T13:28:24.978Z,99977.29
2023-03-24T13:30:54.306Z,99972.39
2023-03-24T13:33:28.769Z,99967.48
2023-03-24T13:36:15.056Z,99964.16
2023-03-24T13:38:49.591Z,99966.27
2023-03-24T13:41:20.020Z,99962.21
2023-03-24T13:43:58.046Z,99958.69
2023-03-24T13:46:26.555Z,99957.11
2023-03-24T13:48:56.015Z,99955.78
2023-03-24T13:51:32.378Z,99952.69
2023-03-24T13:54:07.116Z,99951.27
2023-03-24T13:56:37.865Z,99949.14
2023-03-24T13:59:28.704Z,99951.59
2023-03-24T14:02:29.406Z,99944.39
2023-03-24T14:05:12.358Z,99943.57
2023-03-24T14:07:41.028Z,99946.55
2023-03-24T14:10:16.208Z,99943.59
2023-03-24T14:12:58.229Z,99943.22
2023-03-24T14:15:30.223Z,99944.39
2023-03-24T14:18:25.660Z,99940.67
2023-03-24T14:21:08.914Z,99939.22
2023-03-24T14:23:51.849Z,99939.52
2023-03-24T14:26:21.178Z,99940.92
2023-03-24T14:28:50.603Z,99938.95
2023-03-24T14:31:29.209Z,99937.63
2023-03-24T14:34:11.003Z,99935.42
2023-03-24T14:36:41.016Z,99929.38
2023-03-24T14:39:29.926Z,99932.83
2023-03-24T14:41:59.384Z,99925.48
2023-03-24T14:44:52.687Z,99926.02
2023-03-24T14:47:31.154Z,99924.64
2023-03-24T14:50:01.631Z,99922.67
2023-03-24T14:52:40.616Z,99922.70
2023-03-24T14:55:13.195Z,99923.55
2023-03-24T14:57:44.546Z,99924.94
2023-03-24T15:00:21.622Z,99920.61
2023-03-24T15:02:51.541Z,99919.40
2023-03-24T15:05:31.194Z,99917.33
2023-03-24T15:08:18.484Z,99918.48
2023-03-24T15:11:04.088Z,99920.08
2023-03-24T15:13:41.999Z,99915.66
2023-03-24T15:16:10.499Z,99914.30
2023-03-24T15:19:01.323Z,99915.52
2023-03-24T15:21:39.878Z,99912.83
2023-03-24T15:24:38.213Z,99914.05
2023-03-24T15:27:09.042Z,99910.17
2023-03-24T15:29:38.975Z,99913.34
2023-03-24T15:32:07.623Z,99914.62
2023-03-24T15:34:41.084Z,99913.53
2023-03-24T15:37:33.158Z,99916.11
2023-03-24T15:40:15.339Z,99921.29
2023-03-24T15:42:44.670Z,99924.82
2023-03-24T15:45:55.292Z,99926.89
2023-03-24T15:48:33.588Z,99926.89
2023-03-24T15:51:11.863Z,99926.54
2023-03-24T15:53:49.210Z,99927.55
2023-03-24T15:56:26.141Z,99926.06
2023-03-24T15:59:11.876Z,99926.03
2023-03-24T16:01:45.157Z,99927.55
2023-03-24T16:04:15.936Z,99927.70
2023-03-24T16:06:49.432Z,99930.89
2023-03-24T16:09:22.392Z,99933.10
2023-03-24T16:11:50.738Z,99937.64
2023-03-24T16:14:25.840Z,99936.69
2023-03-24T16:16:57.759Z,99942.11
2023-03-24T16:19:26.328Z,99943.69
2023-03-24T16:21:55.007Z,99948.02
2023-03-24T16:24:23.660Z,99947.63
2023-03-24T16:26:52.492Z,99954.64
2023-03-24T16:29:25.875Z,99951.91
2023-03-24T16:31:56.334Z,99949.73
2023-03-24T16:34:24.848Z,99951.89
2023-03-24T16:36:53.750Z,99947.22
2023-03-24T16:39:26.880Z,99947.55
2023-03-24T16:41:55.986Z,99950.67
2023-03-24T16:44:24.599Z,99956.61
2023-03-24T16:46:53.996Z,99956.90
2023-03-24T16:49:24.837Z,99955.28
2023-03-24T16:51:54.031Z,99956.11
2023-03-24T16:54:25.562Z,99956.23
2023-03-24T16:56:54.720Z,99955.98
2023-03-24T16:59:23.687Z,99954.71
2023-03-24T17:01:56.445Z,99956.91
2023-03-24T17:04:27.488Z,99959.11
2023-03-24T17:06:57.439Z,99955.27
2023-03-24T17:09:30.864Z,99957.38
2023-03-24T17:12:00.694Z,99955.77
2023-03-24T17:14:34.138Z,99953.91
2023-03-24T17:17:04.578Z,99954.79
2023-03-24T17:19:34.884Z,99951.77
2023-03-24T17:22:06.668Z,99950.71
2023-03-24T17:24:38.191Z,99947.20
2023-03-24T17:27:11.987Z,99949.60
2023-03-24T17:29:40.744Z,99947.77
2023-03-24T17:32:09.238Z,99949.77
2023-03-24T17:34:47.831Z,99950.95
2023-03-24T17:37:16.978Z,99950.22
2023-03-24T17:39:45.184Z,99948.20
2023-03-24T17:42:14.793Z,99946.65
2023-03-24T17:44:43.968Z,99950.90
2023-03-24T17:47:12.838Z,99952.85
2023-03-24T17:50:02.095Z,99956.83
2023-03-24T17:52:41.075Z,99956.23
2023-03-24T17:55:10.450Z,99957.84
2023-03-24T17:57:38.948Z,99955.91
2023-03-24T18:00:12.249Z,99957.10
2023-03-24T18:02:45.177Z,99960.98
2023-03-24T18:05:16.094Z,99965.64
2023-03-24T18:07:47.856Z,99968.55
2023-03-24T18:10:17.433Z,99969.33
2023-03-24T18:12:47.371Z,99967.58
2023-03-24T18:15:16.611Z,99967.41
2023-03-24T18:17:45.553Z,99972.57
2023-03-24T18:20:16.428Z,99976.44
2023-03-24T18:22:46.089Z,99975.99
2023-03-24T18:25:14.352Z,99977.64
2023-03-24T18:27:46.204Z,99975.15
2023-03-24T18:30:15.054Z,99970.79
2023-03-24T18:32:44.038Z,99970.65
2023-03-24T18:35:16.758Z,99971.21
2023-03-24T18:37:45.730Z,99969.94
2023-03-24T18:40:16.737Z,99971.55
2023-03-24T18:43:11.351Z,99975.69
2023-03-24T18:45:41.140Z,99976.20
2023-03-24T18:48:13.653Z,99975.40
2023-03-24T18:50:43.897Z,99975.86
2023-03-24T18:53:16.523Z,99988.02
2023-03-24T18:55:50.330Z,99992.26
2023-03-24T18:58:19.048Z,99990.41
2023-03-24T19:00:48.826Z,99986.75
2023-03-24T19:03:17.553Z,99987.40
2023-03-24T19:05:47.922Z,99984.39
2023-03-24T19:08:17.766Z,99981.81
2023-03-24T19:10:48.381Z,99981.52
2023-03-24T19:13:18.333Z,99981.04
2023-03-24T19:15:47.721Z,99977.66
2023-03-24T19:18:16.596Z,99975.55
2023-03-24T19:20:45.421Z,99976.02
2023-03-24T19:23:16.212Z,99972.40
2023-03-24T19:25:44.620Z,99969.55
2023-03-24T19:28:14.940Z,99969.65
2023-03-24T19:30:43.948Z,99966.81
2023-03-24T19:33:13.425Z,99965.08
2023-03-24T19:35:41.842Z,99967.63
2023-03-24T19:38:10.597Z,99965.73
2023-03-24T19:40:45.180Z,99964.45
2023-03-24T19:43:13.781Z,99960.17
2023-03-24T19:45:43.110Z,99959.70
2023-03-24T19:48:12.608Z,99955.71
2023-03-24T19:50:40.832Z,99949.70
2023-03-24T19:53:10.104Z,99949.01
2023-03-24T19:55:38.548Z,99947.34
2023-03-24T19:58:07.611Z,99944.34
2023-03-24T20:00:37.412Z,99944.14
2023-03-24T20:03:06.960Z,99940.92
2023-03-24T20:05:38.607Z,99942.17
2023-03-24T20:08:07.291Z,99937.13
2023-03-24T20:10:37.667Z,99937.94
2023-03-24T20:13:08.344Z,99933.59
2023-03-24T20:15:36.860Z,99930.80
2023-03-24T20:18:05.578Z,99931.48
2023-03-24T20:20:33.772Z,99928.05
2023-03-24T20:23:02.200Z,99925.66
2023-03-24T20:25:30.969Z,99918.34
2023-03-24T20:27:59.471Z,99911.83
2023-03-24T20:30:30.274Z,99916.59
2023-03-24T20:32:59.909Z,99913.48
2023-03-24T20:35:29.612Z,99906.09
2023-03-24T20:37:58.100Z,99904.98
2023-03-24T20:40:29.378Z,99901.11
2023-03-24T20:42:57.666Z,99898.98
2023-03-24T20:45:26.890Z,99893.88
2023-03-24T20:47:57.012Z,99897.25
2023-03-24T20:50:25.395Z,99892.14
2023-03-24T20:52:54.698Z,99885.10
2023-03-24T20:55:42.983Z,99884.52
2023-03-24T20:58:12.805Z,99886.49
2023-03-24T21:00:46.288Z,99882.94
2023-03-24T21:03:15.772Z,99884.02
2023-03-24T21:05:45.751Z,99884.60
2023-03-24T21:08:14.585Z,99881.90
2023-03-24T21:10:50.958Z,99884.87
2023-03-24T21:13:21.630Z,99886.89
2023-03-24T21:15:50.458Z,99886.08
2023-03-24T21:18:25.171Z,99890.31
2023-03-24T21:20:57.075Z,99880.69
2023-03-24T21:23:25.580Z,99882.45
2023-03-24T21:25:59.076Z,99883.95
2023-03-24T21:28:30.505Z,99881.95
2023-03-24T21:31:05.047Z,99883.31
2023-03-24T21:33:33.903Z,99881.85
2023-03-24T21:36:02.186Z,99878.27
2023-03-24T21:38:32.979Z,99879.04
2023-03-24T21:41:02.243Z,99871.98
2023-03-24T21:43:30.531Z,99868.08
2023-03-24T21:45:59.080Z,99867.34
2023-03-24T21:48:28.371Z,99863.23
2023-03-24T21:50:57.715Z,99866.29
2023-03-24T21:53:26.347Z,99864.64
2023-03-24T21:56:05.108Z,99860.52
2023-03-24T21:58:33.668Z,99864.35
2023-03-24T22:01:04.864Z,99862.53
2023-03-24T22:03:34.682Z,99854.58
2023-03-24T22:06:04.988Z,99849.65
2023-03-24T22:08:35.086Z,99835.64
2023-03-24T22:11:04.497Z,99823.75
2023-03-24T22:13:35.039Z,99815.21
2023-03-24T22:16:04.135Z,99812.98
2023-03-24T22:18:33.207Z,99818.91
2023-03-24T22:21:07.728Z,99825.96
2023-03-24T22:23:39.284Z,99833.87
2023-03-24T22:26:13.014Z,99832.34
2023-03-24T22:28:43.016Z,99830.80
2023-03-24T22:31:13.363Z,99827.85
2023-03-24T22:33:41.640Z,99828.48
2023-03-24T22:36:10.497Z,99823.86
2023-03-24T22:38:39.213Z,99821.16
2023-03-24T22:41:12.170Z,99812.58
2023-03-24T22:43:42.283Z,99806.27
2023-03-24T22:46:11.055Z,99808.20
2023-03-24T22:48:40.544Z,99805.46
2023-03-24T22:51:09.547Z,99811.88
2023-03-24T22:53:42.749Z,99810.33
2023-03-24T22:56:12.148Z,99804.52
2023-03-24T22:58:40.590Z,99795.79
2023-03-24T23:01:10.640Z,99794.32
2023-03-24T23:03:39.117Z,99797.00
2023-03-24T23:06:15.951Z,99799.52
2023-03-24T23:08:45.688Z,99800.16
2023-03-24T23:11:13.841Z,99802.70
2023-03-24T23:13:53.344Z,99804.38
2023-03-24T23:16:21.620Z,99803.97
2023-03-24T23:18:52.390Z,99799.36
2023-03-24T23:21:20.723Z,99794.30
2023-03-24T23:23:48.905Z,99799.55
2023-03-24T23:26:26.292Z,99797.13
2023-03-24T23:28:57.087Z,99795.30
2023-03-24T23:31:26.770Z,99797.55
2023-03-24T23:33:56.569Z,99795.82
2023-03-24T23:36:26.486Z,99796.59
2023-03-24T23:38:54.928Z,99793.06
2023-03-24T23:41:24.622Z,99788.87
2023-03-24T23:43:53.203Z,99782.13
2023-03-24T23:46:24.118Z,99773.92
2023-03-24T23:48:53.052Z,99777.86
2023-03-24T23:51:24.813Z,99779.35
2023-03-24T23:53:53.050Z,99776.18
2023-03-24T23:56:22.970Z,99776.36
2023-03-24T23:58:52.402Z,99766.34
